sensor_id;sensor_type;location;lat;lon;timestamp;P1;durP1;ratioP1;P2;durP2;ratioP2
11422;SDS011;5768;51.476;7.210;2023-12-07T00:03:44;37.73;;;23.60;;
11422;SDS011;5768;51.476;7.210;2023-12-07T00:08:46;41.30;;;24.00;;
11422;SDS011;5768;51.476;7.210;2023-12-07T00:13:50;33.20;;;23.57;;
11422;SDS011;5768;51.476;7.210;2023-12-07T00:18:52;39.17;;;21.77;;
11422;SDS011;5768;51.476;7.210;2023-12-07T00:23:55;37.93;;;23.23;;
11422;SDS011;5768;51.476;7.210;2023-12-07T00:28:58;43.27;;;24.97;;
11422;SDS011;5768;51.476;7.210;2023-12-07T00:34:01;39.67;;;25.33;;
11422;SDS011;5768;51.476;7.210;2023-12-07T00:39:03;39.07;;;25.33;;
11422;SDS011;5768;51.476;7.210;2023-12-07T00:44:07;35.97;;;24.60;;
11422;SDS011;5768;51.476;7.210;2023-12-07T00:49:09;34.57;;;23.60;;
11422;SDS011;5768;51.476;7.210;2023-12-07T00:54:12;33.00;;;24.63;;
11422;SDS011;5768;51.476;7.210;2023-12-07T00:59:16;37.90;;;25.60;;
11422;SDS011;5768;51.476;7.210;2023-12-07T01:04:19;37.63;;;25.37;;
11422;SDS011;5768;51.476;7.210;2023-12-07T01:09:21;36.03;;;26.07;;
11422;SDS011;5768;51.476;7.210;2023-12-07T01:14:25;37.13;;;26.67;;
11422;SDS011;5768;51.476;7.210;2023-12-07T01:19:27;38.90;;;25.73;;
11422;SDS011;5768;51.476;7.210;2023-12-07T01:24:29;40.23;;;26.70;;
11422;SDS011;5768;51.476;7.210;2023-12-07T01:29:33;42.90;;;27.27;;
11422;SDS011;5768;51.476;7.210;2023-12-07T01:34:35;37.70;;;25.43;;
11422;SDS011;5768;51.476;7.210;2023-12-07T01:39:38;39.07;;;26.33;;
11422;SDS011;5768;51.476;7.210;2023-12-07T01:44:41;37.80;;;26.77;;
11422;SDS011;5768;51.476;7.210;2023-12-07T01:49:43;38.47;;;26.57;;
11422;SDS011;5768;51.476;7.210;2023-12-07T01:54:49;40.67;;;26.83;;
11422;SDS011;5768;51.476;7.210;2023-12-07T01:59:53;40.27;;;26.17;;
11422;SDS011;5768;51.476;7.210;2023-12-07T02:04:55;40.53;;;26.57;;
11422;SDS011;5768;51.476;7.210;2023-12-07T02:09:58;36.50;;;25.20;;
11422;SDS011;5768;51.476;7.210;2023-12-07T02:15:02;37.80;;;24.70;;
11422;SDS011;5768;51.476;7.210;2023-12-07T02:20:06;39.93;;;24.40;;
11422;SDS011;5768;51.476;7.210;2023-12-07T02:25:14;40.17;;;24.07;;
11422;SDS011;5768;51.476;7.210;2023-12-07T02:30:24;36.30;;;21.93;;
11422;SDS011;5768;51.476;7.210;2023-12-07T02:35:27;32.93;;;22.57;;
11422;SDS011;5768;51.476;7.210;2023-12-07T02:40:31;32.07;;;21.73;;
11422;SDS011;5768;51.476;7.210;2023-12-07T02:45:35;30.93;;;21.40;;
11422;SDS011;5768;51.476;7.210;2023-12-07T02:50:38;28.83;;;21.00;;
11422;SDS011;5768;51.476;7.210;2023-12-07T02:55:40;33.10;;;21.97;;
11422;SDS011;5768;51.476;7.210;2023-12-07T03:00:49;34.33;;;22.60;;
11422;SDS011;5768;51.476;7.210;2023-12-07T03:05:51;35.37;;;22.57;;
11422;SDS011;5768;51.476;7.210;2023-12-07T03:10:54;35.50;;;21.60;;
11422;SDS011;5768;51.476;7.210;2023-12-07T03:15:57;39.57;;;19.90;;
11422;SDS011;5768;51.476;7.210;2023-12-07T03:21:01;33.00;;;21.30;;
11422;SDS011;5768;51.476;7.210;2023-12-07T03:26:04;32.43;;;21.13;;
11422;SDS011;5768;51.476;7.210;2023-12-07T03:31:07;35.07;;;22.80;;
11422;SDS011;5768;51.476;7.210;2023-12-07T03:36:10;31.07;;;21.20;;
11422;SDS011;5768;51.476;7.210;2023-12-07T03:41:13;63.47;;;21.57;;
11422;SDS011;5768;51.476;7.210;2023-12-07T03:46:16;32.47;;;20.07;;
11422;SDS011;5768;51.476;7.210;2023-12-07T03:51:19;40.80;;;20.87;;
11422;SDS011;5768;51.476;7.210;2023-12-07T03:56:24;37.40;;;19.93;;
11422;SDS011;5768;51.476;7.210;2023-12-07T04:01:29;45.30;;;19.83;;
11422;SDS011;5768;51.476;7.210;2023-12-07T04:06:32;36.70;;;20.37;;
11422;SDS011;5768;51.476;7.210;2023-12-07T04:11:34;38.90;;;19.57;;
11422;SDS011;5768;51.476;7.210;2023-12-07T04:16:38;31.30;;;19.50;;
11422;SDS011;5768;51.476;7.210;2023-12-07T04:21:40;28.47;;;19.60;;
11422;SDS011;5768;51.476;7.210;2023-12-07T04:26:42;31.07;;;19.60;;
11422;SDS011;5768;51.476;7.210;2023-12-07T04:31:49;29.27;;;18.67;;
11422;SDS011;5768;51.476;7.210;2023-12-07T04:36:51;30.70;;;18.40;;
11422;SDS011;5768;51.476;7.210;2023-12-07T04:41:53;30.53;;;19.50;;
11422;SDS011;5768;51.476;7.210;2023-12-07T04:46:57;23.90;;;17.13;;
11422;SDS011;5768;51.476;7.210;2023-12-07T04:51:59;23.30;;;17.27;;
11422;SDS011;5768;51.476;7.210;2023-12-07T04:57:02;22.83;;;16.43;;
11422;SDS011;5768;51.476;7.210;2023-12-07T05:02:06;21.47;;;15.57;;
11422;SDS011;5768;51.476;7.210;2023-12-07T05:07:08;23.63;;;15.47;;
11422;SDS011;5768;51.476;7.210;2023-12-07T05:12:10;21.60;;;15.33;;
11422;SDS011;5768;51.476;7.210;2023-12-07T05:17:14;21.73;;;15.53;;
11422;SDS011;5768;51.476;7.210;2023-12-07T05:22:16;17.53;;;13.50;;
11422;SDS011;5768;51.476;7.210;2023-12-07T05:27:18;21.63;;;14.80;;
11422;SDS011;5768;51.476;7.210;2023-12-07T05:32:22;20.10;;;14.23;;
11422;SDS011;5768;51.476;7.210;2023-12-07T05:37:24;21.70;;;14.67;;
11422;SDS011;5768;51.476;7.210;2023-12-07T05:42:26;19.60;;;14.87;;
11422;SDS011;5768;51.476;7.210;2023-12-07T05:47:30;18.77;;;13.87;;
11422;SDS011;5768;51.476;7.210;2023-12-07T05:52:32;20.57;;;15.23;;
11422;SDS011;5768;51.476;7.210;2023-12-07T05:57:34;23.87;;;15.83;;
11422;SDS011;5768;51.476;7.210;2023-12-07T06:02:38;23.17;;;16.00;;
11422;SDS011;5768;51.476;7.210;2023-12-07T06:07:40;21.93;;;16.07;;
11422;SDS011;5768;51.476;7.210;2023-12-07T06:12:42;20.03;;;16.07;;
11422;SDS011;5768;51.476;7.210;2023-12-07T06:17:46;21.13;;;15.93;;
11422;SDS011;5768;51.476;7.210;2023-12-07T06:22:48;22.33;;;16.27;;
11422;SDS011;5768;51.476;7.210;2023-12-07T06:27:50;23.23;;;16.43;;
11422;SDS011;5768;51.476;7.210;2023-12-07T06:32:54;24.27;;;17.50;;
11422;SDS011;5768;51.476;7.210;2023-12-07T06:37:57;28.10;;;18.53;;
11422;SDS011;5768;51.476;7.210;2023-12-07T06:42:59;27.93;;;17.83;;
11422;SDS011;5768;51.476;7.210;2023-12-07T06:48:04;26.07;;;17.17;;
11422;SDS011;5768;51.476;7.210;2023-12-07T06:53:07;28.80;;;18.80;;
11422;SDS011;5768;51.476;7.210;2023-12-07T06:58:09;30.67;;;18.97;;
11422;SDS011;5768;51.476;7.210;2023-12-07T07:03:14;25.80;;;17.83;;
11422;SDS011;5768;51.476;7.210;2023-12-07T07:08:16;30.27;;;18.83;;
11422;SDS011;5768;51.476;7.210;2023-12-07T07:13:18;30.47;;;18.97;;
11422;SDS011;5768;51.476;7.210;2023-12-07T07:18:22;32.33;;;19.00;;
11422;SDS011;5768;51.476;7.210;2023-12-07T07:23:25;32.27;;;19.67;;
11422;SDS011;5768;51.476;7.210;2023-12-07T07:28:27;28.63;;;18.57;;
11422;SDS011;5768;51.476;7.210;2023-12-07T07:33:31;31.00;;;19.30;;
11422;SDS011;5768;51.476;7.210;2023-12-07T07:38:33;62.60;;;36.90;;
11422;SDS011;5768;51.476;7.210;2023-12-07T07:43:39;44.87;;;22.50;;
11422;SDS011;5768;51.476;7.210;2023-12-07T07:48:42;42.80;;;20.90;;
11422;SDS011;5768;51.476;7.210;2023-12-07T07:53:44;35.70;;;20.20;;
11422;SDS011;5768;51.476;7.210;2023-12-07T07:58:47;37.23;;;20.43;;
11422;SDS011;5768;51.476;7.210;2023-12-07T08:03:51;35.30;;;20.43;;
11422;SDS011;5768;51.476;7.210;2023-12-07T08:08:53;34.23;;;20.57;;
11422;SDS011;5768;51.476;7.210;2023-12-07T08:13:55;35.83;;;20.97;;
11422;SDS011;5768;51.476;7.210;2023-12-07T08:18:59;34.23;;;21.17;;
11422;SDS011;5768;51.476;7.210;2023-12-07T08:24:01;32.87;;;20.53;;
11422;SDS011;5768;51.476;7.210;2023-12-07T08:29:05;33.13;;;20.70;;
11422;SDS011;5768;51.476;7.210;2023-12-07T08:34:09;37.07;;;20.50;;
11422;SDS011;5768;51.476;7.210;2023-12-07T08:39:13;33.50;;;20.73;;
11422;SDS011;5768;51.476;7.210;2023-12-07T08:44:18;37.43;;;21.80;;
11422;SDS011;5768;51.476;7.210;2023-12-07T08:49:22;32.27;;;19.93;;
11422;SDS011;5768;51.476;7.210;2023-12-07T08:54:24;30.73;;;20.70;;
11422;SDS011;5768;51.476;7.210;2023-12-07T08:59:26;32.97;;;20.80;;
11422;SDS011;5768;51.476;7.210;2023-12-07T09:04:30;27.97;;;19.37;;
11422;SDS011;5768;51.476;7.210;2023-12-07T09:09:32;26.43;;;17.80;;
11422;SDS011;5768;51.476;7.210;2023-12-07T09:14:35;25.10;;;18.17;;
11422;SDS011;5768;51.476;7.210;2023-12-07T09:19:41;22.37;;;16.57;;
11422;SDS011;5768;51.476;7.210;2023-12-07T09:24:44;18.17;;;15.10;;
11422;SDS011;5768;51.476;7.210;2023-12-07T09:29:47;18.10;;;14.70;;
11422;SDS011;5768;51.476;7.210;2023-12-07T09:34:52;17.10;;;14.33;;
11422;SDS011;5768;51.476;7.210;2023-12-07T09:39:55;17.67;;;14.30;;
11422;SDS011;5768;51.476;7.210;2023-12-07T09:44:57;17.83;;;13.50;;
11422;SDS011;5768;51.476;7.210;2023-12-07T09:50:01;17.83;;;12.73;;
11422;SDS011;5768;51.476;7.210;2023-12-07T09:55:05;15.20;;;11.47;;
11422;SDS011;5768;51.476;7.210;2023-12-07T10:00:09;14.53;;;11.63;;
11422;SDS011;5768;51.476;7.210;2023-12-07T10:05:16;13.10;;;11.13;;
11422;SDS011;5768;51.476;7.210;2023-12-07T10:10:19;11.73;;;10.50;;
11422;SDS011;5768;51.476;7.210;2023-12-07T10:15:22;11.37;;;9.83;;
11422;SDS011;5768;51.476;7.210;2023-12-07T10:20:27;10.30;;;9.10;;
11422;SDS011;5768;51.476;7.210;2023-12-07T10:25:31;12.47;;;9.60;;
11422;SDS011;5768;51.476;7.210;2023-12-07T10:30:37;12.47;;;10.20;;
11422;SDS011;5768;51.476;7.210;2023-12-07T10:35:46;8.87;;;7.97;;
11422;SDS011;5768;51.476;7.210;2023-12-07T10:40:51;9.27;;;8.37;;
11422;SDS011;5768;51.476;7.210;2023-12-07T10:46:06;9.63;;;8.63;;
11422;SDS011;5768;51.476;7.210;2023-12-07T10:51:20;8.73;;;7.80;;
11422;SDS011;5768;51.476;7.210;2023-12-07T10:56:32;9.03;;;8.10;;
11422;SDS011;5768;51.476;7.210;2023-12-07T11:01:44;12.60;;;7.77;;
11422;SDS011;5768;51.476;7.210;2023-12-07T11:06:51;8.63;;;7.00;;
11422;SDS011;5768;51.476;7.210;2023-12-07T11:12:01;9.10;;;7.77;;
11422;SDS011;5768;51.476;7.210;2023-12-07T11:17:11;7.73;;;7.03;;
11422;SDS011;5768;51.476;7.210;2023-12-07T11:22:17;8.87;;;7.67;;
11422;SDS011;5768;51.476;7.210;2023-12-07T11:27:23;8.27;;;7.10;;
11422;SDS011;5768;51.476;7.210;2023-12-07T11:32:26;7.77;;;6.97;;
11422;SDS011;5768;51.476;7.210;2023-12-07T11:38:00;7.57;;;6.57;;
11422;SDS011;5768;51.476;7.210;2023-12-07T11:43:06;8.50;;;6.60;;
11422;SDS011;5768;51.476;7.210;2023-12-07T11:48:10;7.33;;;6.50;;
11422;SDS011;5768;51.476;7.210;2023-12-07T11:53:15;7.30;;;6.60;;
11422;SDS011;5768;51.476;7.210;2023-12-07T11:58:23;7.47;;;6.27;;
11422;SDS011;5768;51.476;7.210;2023-12-07T12:03:27;7.80;;;7.00;;
11422;SDS011;5768;51.476;7.210;2023-12-07T12:08:33;7.20;;;6.53;;
11422;SDS011;5768;51.476;7.210;2023-12-07T12:13:36;7.57;;;6.87;;
11422;SDS011;5768;51.476;7.210;2023-12-07T12:18:39;7.53;;;6.80;;
11422;SDS011;5768;51.476;7.210;2023-12-07T12:23:42;9.17;;;6.67;;
11422;SDS011;5768;51.476;7.210;2023-12-07T12:28:48;7.97;;;7.17;;
11422;SDS011;5768;51.476;7.210;2023-12-07T12:33:50;7.23;;;6.53;;
11422;SDS011;5768;51.476;7.210;2023-12-07T12:38:54;7.37;;;6.47;;
11422;SDS011;5768;51.476;7.210;2023-12-07T12:43:57;8.37;;;6.70;;
11422;SDS011;5768;51.476;7.210;2023-12-07T12:49:00;7.13;;;6.37;;
11422;SDS011;5768;51.476;7.210;2023-12-07T12:54:04;6.80;;;6.10;;
11422;SDS011;5768;51.476;7.210;2023-12-07T12:59:06;7.67;;;6.50;;
11422;SDS011;5768;51.476;7.210;2023-12-07T13:04:12;7.13;;;6.07;;
11422;SDS011;5768;51.476;7.210;2023-12-07T13:09:16;6.97;;;6.27;;
11422;SDS011;5768;51.476;7.210;2023-12-07T13:14:21;7.30;;;6.60;;
11422;SDS011;5768;51.476;7.210;2023-12-07T13:19:23;7.13;;;6.40;;
11422;SDS011;5768;51.476;7.210;2023-12-07T13:24:30;7.70;;;6.53;;
11422;SDS011;5768;51.476;7.210;2023-12-07T13:29:32;6.40;;;5.80;;
11422;SDS011;5768;51.476;7.210;2023-12-07T13:34:34;6.73;;;6.10;;
11422;SDS011;5768;51.476;7.210;2023-12-07T13:39:39;6.77;;;5.50;;
11422;SDS011;5768;51.476;7.210;2023-12-07T13:44:43;6.73;;;5.90;;
11422;SDS011;5768;51.476;7.210;2023-12-07T13:49:45;6.40;;;5.70;;
11422;SDS011;5768;51.476;7.210;2023-12-07T13:54:51;6.73;;;6.03;;
11422;SDS011;5768;51.476;7.210;2023-12-07T13:59:53;6.37;;;5.77;;
11422;SDS011;5768;51.476;7.210;2023-12-07T14:04:56;7.77;;;6.17;;
11422;SDS011;5768;51.476;7.210;2023-12-07T14:10:04;7.27;;;6.20;;
11422;SDS011;5768;51.476;7.210;2023-12-07T14:15:08;6.73;;;5.90;;
11422;SDS011;5768;51.476;7.210;2023-12-07T14:20:11;9.43;;;6.50;;
11422;SDS011;5768;51.476;7.210;2023-12-07T14:25:15;6.97;;;6.07;;
11422;SDS011;5768;51.476;7.210;2023-12-07T14:30:18;7.93;;;6.70;;
11422;SDS011;5768;51.476;7.210;2023-12-07T14:35:22;7.40;;;6.33;;
11422;SDS011;5768;51.476;7.210;2023-12-07T14:40:29;7.40;;;6.57;;
11422;SDS011;5768;51.476;7.210;2023-12-07T14:45:32;7.10;;;6.47;;
11422;SDS011;5768;51.476;7.210;2023-12-07T14:50:34;8.67;;;6.97;;
11422;SDS011;5768;51.476;7.210;2023-12-07T14:55:38;8.10;;;6.37;;
11422;SDS011;5768;51.476;7.210;2023-12-07T15:00:41;9.33;;;6.47;;
11422;SDS011;5768;51.476;7.210;2023-12-07T15:05:44;7.30;;;6.60;;
11422;SDS011;5768;51.476;7.210;2023-12-07T15:10:51;9.40;;;6.73;;
11422;SDS011;5768;51.476;7.210;2023-12-07T15:15:55;6.90;;;6.07;;
11422;SDS011;5768;51.476;7.210;2023-12-07T15:20:58;7.27;;;6.53;;
11422;SDS011;5768;51.476;7.210;2023-12-07T15:26:02;6.97;;;6.27;;
11422;SDS011;5768;51.476;7.210;2023-12-07T15:31:05;7.30;;;6.30;;
11422;SDS011;5768;51.476;7.210;2023-12-07T15:36:08;6.67;;;5.97;;
11422;SDS011;5768;51.476;7.210;2023-12-07T15:41:12;7.23;;;6.53;;
11422;SDS011;5768;51.476;7.210;2023-12-07T15:46:15;6.60;;;6.00;;
11422;SDS011;5768;51.476;7.210;2023-12-07T15:51:17;7.00;;;6.30;;
11422;SDS011;5768;51.476;7.210;2023-12-07T15:56:21;7.43;;;6.63;;
11422;SDS011;5768;51.476;7.210;2023-12-07T16:01:23;8.10;;;6.70;;
11422;SDS011;5768;51.476;7.210;2023-12-07T16:06:26;8.07;;;6.90;;
11422;SDS011;5768;51.476;7.210;2023-12-07T16:11:29;8.20;;;7.40;;
11422;SDS011;5768;51.476;7.210;2023-12-07T16:16:32;8.00;;;7.00;;
11422;SDS011;5768;51.476;7.210;2023-12-07T16:21:34;8.77;;;7.87;;
11422;SDS011;5768;51.476;7.210;2023-12-07T16:26:38;9.30;;;7.40;;
11422;SDS011;5768;51.476;7.210;2023-12-07T16:31:44;8.93;;;7.47;;
11422;SDS011;5768;51.476;7.210;2023-12-07T16:36:46;8.27;;;7.00;;
11422;SDS011;5768;51.476;7.210;2023-12-07T16:41:50;9.23;;;7.30;;
11422;SDS011;5768;51.476;7.210;2023-12-07T16:46:53;8.17;;;7.17;;
11422;SDS011;5768;51.476;7.210;2023-12-07T16:51:56;10.20;;;7.37;;
11422;SDS011;5768;51.476;7.210;2023-12-07T16:57:01;10.40;;;7.33;;
11422;SDS011;5768;51.476;7.210;2023-12-07T17:02:04;8.23;;;7.20;;
11422;SDS011;5768;51.476;7.210;2023-12-07T17:07:07;7.77;;;6.83;;
11422;SDS011;5768;51.476;7.210;2023-12-07T17:12:11;9.10;;;6.90;;
11422;SDS011;5768;51.476;7.210;2023-12-07T17:17:17;7.87;;;6.57;;
11422;SDS011;5768;51.476;7.210;2023-12-07T17:22:20;8.07;;;6.70;;
11422;SDS011;5768;51.476;7.210;2023-12-07T17:27:24;7.40;;;6.60;;
11422;SDS011;5768;51.476;7.210;2023-12-07T17:32:26;8.33;;;6.50;;
11422;SDS011;5768;51.476;7.210;2023-12-07T17:37:29;7.70;;;6.90;;
11422;SDS011;5768;51.476;7.210;2023-12-07T17:42:33;7.03;;;6.33;;
11422;SDS011;5768;51.476;7.210;2023-12-07T17:47:36;7.53;;;6.53;;
11422;SDS011;5768;51.476;7.210;2023-12-07T17:52:39;8.37;;;7.03;;
11422;SDS011;5768;51.476;7.210;2023-12-07T17:57:44;8.93;;;7.30;;
11422;SDS011;5768;51.476;7.210;2023-12-07T18:02:49;8.73;;;7.10;;
11422;SDS011;5768;51.476;7.210;2023-12-07T18:07:52;7.47;;;5.77;;
11422;SDS011;5768;51.476;7.210;2023-12-07T18:12:55;7.97;;;7.10;;
11422;SDS011;5768;51.476;7.210;2023-12-07T18:17:58;7.03;;;6.33;;
11422;SDS011;5768;51.476;7.210;2023-12-07T18:23:00;6.53;;;5.93;;
11422;SDS011;5768;51.476;7.210;2023-12-07T18:28:04;7.17;;;5.90;;
11422;SDS011;5768;51.476;7.210;2023-12-07T18:33:11;8.20;;;6.10;;
11422;SDS011;5768;51.476;7.210;2023-12-07T18:38:15;8.13;;;5.90;;
11422;SDS011;5768;51.476;7.210;2023-12-07T18:43:19;6.93;;;5.10;;
11422;SDS011;5768;51.476;7.210;2023-12-07T18:48:22;6.47;;;5.00;;
11422;SDS011;5768;51.476;7.210;2023-12-07T18:53:24;5.53;;;5.00;;
11422;SDS011;5768;51.476;7.210;2023-12-07T18:58:32;5.70;;;4.67;;
11422;SDS011;5768;51.476;7.210;2023-12-07T19:03:34;5.70;;;4.90;;
11422;SDS011;5768;51.476;7.210;2023-12-07T19:08:36;5.77;;;5.00;;
11422;SDS011;5768;51.476;7.210;2023-12-07T19:13:41;5.20;;;4.40;;
11422;SDS011;5768;51.476;7.210;2023-12-07T19:18:44;4.50;;;4.10;;
11422;SDS011;5768;51.476;7.210;2023-12-07T19:23:46;4.97;;;4.30;;
11422;SDS011;5768;51.476;7.210;2023-12-07T19:28:54;5.43;;;4.77;;
11422;SDS011;5768;51.476;7.210;2023-12-07T19:33:58;6.67;;;4.10;;
11422;SDS011;5768;51.476;7.210;2023-12-07T19:39:01;5.27;;;4.77;;
11422;SDS011;5768;51.476;7.210;2023-12-07T19:44:05;4.80;;;4.20;;
11422;SDS011;5768;51.476;7.210;2023-12-07T19:49:07;6.93;;;4.30;;
11422;SDS011;5768;51.476;7.210;2023-12-07T19:54:10;4.33;;;3.87;;
11422;SDS011;5768;51.476;7.210;2023-12-07T19:59:14;5.03;;;4.20;;
11422;SDS011;5768;51.476;7.210;2023-12-07T20:04:16;4.50;;;4.10;;
11422;SDS011;5768;51.476;7.210;2023-12-07T20:09:19;5.50;;;4.60;;
11422;SDS011;5768;51.476;7.210;2023-12-07T20:14:23;5.40;;;4.43;;
11422;SDS011;5768;51.476;7.210;2023-12-07T20:19:25;4.53;;;4.10;;
11422;SDS011;5768;51.476;7.210;2023-12-07T20:24:29;4.33;;;3.93;;
11422;SDS011;5768;51.476;7.210;2023-12-07T20:29:33;5.50;;;4.60;;
11422;SDS011;5768;51.476;7.210;2023-12-07T20:34:35;5.10;;;4.40;;
11422;SDS011;5768;51.476;7.210;2023-12-07T20:39:39;5.47;;;4.60;;
11422;SDS011;5768;51.476;7.210;2023-12-07T20:44:43;5.20;;;4.63;;
11422;SDS011;5768;51.476;7.210;2023-12-07T20:49:46;5.30;;;4.80;;
11422;SDS011;5768;51.476;7.210;2023-12-07T20:54:48;5.83;;;4.63;;
11422;SDS011;5768;51.476;7.210;2023-12-07T20:59:52;5.90;;;4.83;;
11422;SDS011;5768;51.476;7.210;2023-12-07T21:04:55;5.70;;;5.00;;
11422;SDS011;5768;51.476;7.210;2023-12-07T21:09:57;6.70;;;4.90;;
11422;SDS011;5768;51.476;7.210;2023-12-07T21:15:01;5.90;;;5.30;;
11422;SDS011;5768;51.476;7.210;2023-12-07T21:20:05;5.43;;;4.90;;
11422;SDS011;5768;51.476;7.210;2023-12-07T21:25:09;5.63;;;5.10;;
11422;SDS011;5768;51.476;7.210;2023-12-07T21:30:13;7.00;;;5.33;;
11422;SDS011;5768;51.476;7.210;2023-12-07T21:35:20;6.47;;;5.77;;
11422;SDS011;5768;51.476;7.210;2023-12-07T21:40:22;6.30;;;5.70;;
11422;SDS011;5768;51.476;7.210;2023-12-07T21:45:26;5.70;;;5.20;;
11422;SDS011;5768;51.476;7.210;2023-12-07T21:50:28;7.00;;;5.30;;
11422;SDS011;5768;51.476;7.210;2023-12-07T21:55:31;5.33;;;4.83;;
11422;SDS011;5768;51.476;7.210;2023-12-07T22:00:35;5.60;;;5.00;;
11422;SDS011;5768;51.476;7.210;2023-12-07T22:05:37;5.80;;;4.90;;
11422;SDS011;5768;51.476;7.210;2023-12-07T22:10:39;5.97;;;5.10;;
11422;SDS011;5768;51.476;7.210;2023-12-07T22:15:43;5.97;;;5.37;;
11422;SDS011;5768;51.476;7.210;2023-12-07T22:20:45;6.00;;;5.07;;
11422;SDS011;5768;51.476;7.210;2023-12-07T22:25:48;5.03;;;4.53;;
11422;SDS011;5768;51.476;7.210;2023-12-07T22:30:52;4.80;;;4.40;;
11422;SDS011;5768;51.476;7.210;2023-12-07T22:35:54;4.63;;;4.20;;
11422;SDS011;5768;51.476;7.210;2023-12-07T22:40:56;4.93;;;4.13;;
11422;SDS011;5768;51.476;7.210;2023-12-07T22:46:00;4.70;;;4.03;;
11422;SDS011;5768;51.476;7.210;2023-12-07T22:51:02;4.40;;;4.00;;
11422;SDS011;5768;51.476;7.210;2023-12-07T22:56:05;4.10;;;3.70;;
11422;SDS011;5768;51.476;7.210;2023-12-07T23:01:10;4.43;;;4.03;;
11422;SDS011;5768;51.476;7.210;2023-12-07T23:06:12;3.60;;;3.30;;
11422;SDS011;5768;51.476;7.210;2023-12-07T23:11:14;4.33;;;3.93;;
11422;SDS011;5768;51.476;7.210;2023-12-07T23:16:18;3.57;;;3.27;;
11422;SDS011;5768;51.476;7.210;2023-12-07T23:21:26;3.90;;;3.50;;
11422;SDS011;5768;51.476;7.210;2023-12-07T23:26:29;3.83;;;3.27;;
11422;SDS011;5768;51.476;7.210;2023-12-07T23:31:32;3.47;;;3.17;;
11422;SDS011;5768;51.476;7.210;2023-12-07T23:36:35;3.23;;;2.93;;
11422;SDS011;5768;51.476;7.210;2023-12-07T23:41:37;3.60;;;3.30;;
11422;SDS011;5768;51.476;7.210;2023-12-07T23:46:41;3.30;;;3.00;;
11422;SDS011;5768;51.476;7.210;2023-12-07T23:51:44;3.60;;;3.30;;
11422;SDS011;5768;51.476;7.210;2023-12-07T23:56:46;4.33;;;3.53;;
